createdAt,value
2018-04-11T00:01:27.660Z,10.00
2018-04-11T00:03:55.650Z,9.90
2018-04-11T00:06:23.586Z,9.90
2018-04-11T00:08:51.544Z,9.90
2018-04-11T00:11:19.441Z,9.80
2018-04-11T00:13:47.310Z,9.80
2018-04-11T00:16:15.209Z,9.80
2018-04-11T00:18:43.919Z,9.80
2018-04-11T00:21:11.773Z,9.70
2018-04-11T00:23:40.353Z,9.70
2018-04-11T00:26:08.922Z,9.60
2018-04-11T00:28:37.522Z,9.60
2018-04-11T00:31:06.150Z,9.60
2018-04-11T00:33:34.048Z,9.60
2018-04-11T00:36:01.975Z,9.60
2018-04-11T00:38:29.936Z,9.60
2018-04-11T00:40:57.734Z,9.60
2018-04-11T00:43:25.532Z,9.60
2018-04-11T00:45:54.204Z,9.50
2018-04-11T00:48:22.058Z,9.50
2018-04-11T00:50:49.922Z,9.50
2018-04-11T00:53:26.805Z,9.50
2018-04-11T00:55:54.597Z,9.50
2018-04-11T00:58:23.267Z,9.50
2018-04-11T01:00:51.131Z,9.50
2018-04-11T01:03:18.922Z,9.50
2018-04-11T01:05:47.532Z,9.50
2018-04-11T01:08:15.452Z,9.50
2018-04-11T01:10:43.230Z,9.40
2018-04-11T01:13:11.843Z,9.30
2018-04-11T01:15:39.708Z,9.30
2018-04-11T01:18:07.599Z,9.20
2018-04-11T01:20:35.565Z,9.20
2018-04-11T01:23:03.393Z,9.20
2018-04-11T01:25:31.974Z,9.20
2018-04-11T01:28:00.573Z,9.10
2018-04-11T01:30:28.470Z,9.10
2018-04-11T01:32:56.313Z,9.20
2018-04-11T01:35:24.113Z,9.10
2018-04-11T01:37:51.984Z,9.00
2018-04-11T01:40:19.772Z,9.00
2018-04-11T01:42:48.469Z,9.10
2018-04-11T01:45:17.065Z,9.10
2018-04-11T01:47:44.924Z,9.10
2018-04-11T01:50:13.517Z,9.10
2018-04-11T01:52:41.316Z,9.10
2018-04-11T01:55:09.921Z,9.10
2018-04-11T01:57:37.676Z,9.10
2018-04-11T02:00:05.546Z,9.10
2018-04-11T02:02:33.381Z,9.20
2018-04-11T02:05:01.211Z,9.20
2018-04-11T02:07:29.830Z,9.10
2018-04-11T02:09:57.667Z,9.10
2018-04-11T02:12:26.171Z,9.10
2018-04-11T02:14:54.045Z,9.10
2018-04-11T02:17:21.993Z,9.10
2018-04-11T02:19:49.808Z,9.10
2018-04-11T02:22:18.409Z,9.10
2018-04-11T02:24:46.289Z,9.10
2018-04-11T02:27:14.145Z,9.10
2018-04-11T02:29:42.007Z,9.10
2018-04-11T02:32:09.865Z,9.10
2018-04-11T02:34:37.660Z,9.10
2018-04-11T02:37:06.228Z,9.00
2018-04-11T02:39:34.066Z,9.00
2018-04-11T02:42:01.867Z,9.10
2018-04-11T02:44:29.718Z,9.00
2018-04-11T02:46:57.650Z,9.00
2018-04-11T02:49:25.472Z,8.90
2018-04-11T02:51:53.308Z,8.90
2018-04-11T02:54:21.089Z,8.90
2018-04-11T02:56:48.832Z,8.80
2018-04-11T02:59:16.679Z,8.70
2018-04-11T03:01:44.540Z,8.70
2018-04-11T03:04:12.451Z,8.70
2018-04-11T03:06:40.421Z,8.70
2018-04-11T03:09:08.255Z,8.70
2018-04-11T03:11:36.064Z,8.60
2018-04-11T03:14:04.780Z,8.50
2018-04-11T03:16:32.642Z,8.50
2018-04-11T03:19:01.181Z,8.20
2018-04-11T03:21:28.956Z,8.20
2018-04-11T03:23:56.765Z,8.20
2018-04-11T03:26:24.657Z,8.20
2018-04-11T03:28:52.434Z,8.20
2018-04-11T03:31:21.065Z,8.10
2018-04-11T03:33:49.649Z,8.10
2018-04-11T03:36:18.198Z,8.10
2018-04-11T03:38:46.017Z,8.10
2018-04-11T03:41:13.880Z,8.00
2018-04-11T03:43:41.760Z,8.00
2018-04-11T03:46:09.589Z,7.80
2018-04-11T03:48:38.124Z,7.70
2018-04-11T03:51:05.937Z,7.70
2018-04-11T03:53:34.512Z,7.50
2018-04-11T03:56:03.144Z,7.50
2018-04-11T03:58:31.025Z,7.50
2018-04-11T04:00:58.826Z,7.40
2018-04-11T04:03:26.605Z,7.30
2018-04-11T04:05:55.225Z,7.30
2018-04-11T04:08:22.971Z,7.20
2018-04-11T04:10:50.833Z,7.20
2018-04-11T04:13:19.446Z,7.30
2018-04-11T04:15:58.976Z,7.20
2018-04-11T04:18:38.711Z,7.30
2018-04-11T04:21:06.518Z,7.30
2018-04-11T04:23:34.447Z,7.30
2018-04-11T04:26:02.307Z,7.20
2018-04-11T04:28:30.091Z,7.30
2018-04-11T04:30:57.885Z,7.30
2018-04-11T04:33:25.744Z,7.20
2018-04-11T04:35:53.494Z,7.20
2018-04-11T04:38:21.318Z,7.20
2018-04-11T04:40:49.934Z,7.30
2018-04-11T04:43:17.747Z,7.30
2018-04-11T04:45:46.167Z,7.30
2018-04-11T04:48:14.980Z,7.40
2018-04-11T04:50:43.081Z,7.40
2018-04-11T04:53:12.106Z,7.30
2018-04-11T04:55:41.195Z,7.30
2018-04-11T04:58:10.264Z,7.30
2018-04-11T05:00:38.844Z,7.30
2018-04-11T05:03:07.395Z,7.30
2018-04-11T05:05:35.271Z,7.30
2018-04-11T05:08:03.222Z,7.30
2018-04-11T05:10:31.163Z,7.30
2018-04-11T05:12:59.802Z,7.30
2018-04-11T05:15:27.665Z,7.30
2018-04-11T05:17:55.587Z,7.30
2018-04-11T05:20:24.182Z,7.30
2018-04-11T05:22:53.322Z,7.30
2018-04-11T05:25:21.506Z,7.30
2018-04-11T05:27:49.376Z,7.30
2018-04-11T05:30:17.209Z,7.30
2018-04-11T05:32:45.736Z,7.30
2018-04-11T05:35:13.628Z,7.30
2018-04-11T05:37:42.199Z,7.30
2018-04-11T05:40:10.092Z,7.30
2018-04-11T05:42:37.917Z,7.30
2018-04-11T05:45:05.652Z,7.40
2018-04-11T05:47:33.581Z,7.40
2018-04-11T05:50:02.131Z,7.50
2018-04-11T05:52:29.886Z,7.50
2018-04-11T05:54:58.162Z,7.60
2018-04-11T05:57:25.945Z,7.70
2018-04-11T05:59:53.703Z,7.70
2018-04-11T06:02:21.743Z,7.70
2018-04-11T06:04:49.641Z,7.70
2018-04-11T06:07:17.739Z,7.70
2018-04-11T06:09:46.353Z,7.90
2018-04-11T06:12:14.114Z,7.80
2018-04-11T06:14:41.973Z,8.00
2018-04-11T06:17:09.868Z,8.00
2018-04-11T06:19:37.657Z,8.10
2018-04-11T06:22:05.415Z,8.20
2018-04-11T06:24:33.239Z,8.30
2018-04-11T06:27:01.083Z,8.40
2018-04-11T06:29:29.682Z,8.60
2018-04-11T06:31:57.476Z,8.50
2018-04-11T06:34:25.300Z,8.70
2018-04-11T06:36:53.871Z,8.90
2018-04-11T06:39:22.624Z,8.90
2018-04-11T06:41:50.466Z,8.90
2018-04-11T06:44:18.253Z,9.00
2018-04-11T06:46:46.140Z,9.20
2018-04-11T06:49:13.913Z,9.30
2018-04-11T06:51:41.765Z,9.50
2018-04-11T06:54:11.167Z,9.90
2018-04-11T06:56:39.728Z,10.10
2018-04-11T06:59:07.573Z,10.00
2018-04-11T07:01:35.469Z,10.30
2018-04-11T07:04:03.238Z,10.40
2018-04-11T07:06:31.062Z,10.60
2018-04-11T07:08:59.723Z,10.90
2018-04-11T07:11:28.319Z,11.10
2018-04-11T07:13:56.955Z,11.20
2018-04-11T07:16:24.839Z,11.20
2018-04-11T07:18:52.667Z,11.30
2018-04-11T07:21:21.154Z,11.60
2018-04-11T07:23:49.062Z,11.50
2018-04-11T07:26:16.914Z,11.80
2018-04-11T07:28:44.638Z,12.00
2018-04-11T07:31:12.431Z,12.00
2018-04-11T07:33:40.187Z,12.30
2018-04-11T07:36:07.972Z,12.40
2018-04-11T07:38:35.818Z,12.60
2018-04-11T07:41:03.608Z,12.80
2018-04-11T07:43:31.419Z,13.00
2018-04-11T07:45:59.250Z,13.30
2018-04-11T07:48:27.826Z,13.80
2018-04-11T07:50:55.718Z,13.80
2018-04-11T07:53:24.417Z,14.20
2018-04-11T07:55:53.033Z,14.50
2018-04-11T07:58:20.934Z,14.50
2018-04-11T08:00:48.845Z,14.70
2018-04-11T08:03:16.813Z,14.80
2018-04-11T08:05:44.637Z,15.00
2018-04-11T08:08:12.532Z,15.20
2018-04-11T08:10:41.203Z,15.50
2018-04-11T08:13:09.109Z,15.50
2018-04-11T08:15:36.970Z,15.80
2018-04-11T08:18:04.749Z,15.90
2018-04-11T08:20:32.605Z,16.00
2018-04-11T08:23:00.407Z,16.10
2018-04-11T08:25:28.241Z,16.30
2018-04-11T08:27:55.982Z,16.30
2018-04-11T08:30:24.606Z,16.30
2018-04-11T08:32:52.386Z,16.30
2018-04-11T08:35:20.197Z,16.40
2018-04-11T08:37:48.875Z,16.80
2018-04-11T08:40:17.403Z,16.90
2018-04-11T08:42:45.322Z,16.90
2018-04-11T08:45:14.025Z,17.30
2018-04-11T08:47:42.673Z,17.40
2018-04-11T08:50:10.505Z,17.40
2018-04-11T08:52:38.378Z,17.40
2018-04-11T08:55:06.365Z,17.50
2018-04-11T08:57:34.096Z,17.50
2018-04-11T09:00:02.007Z,17.60
2018-04-11T09:02:29.890Z,17.80
2018-04-11T09:04:57.713Z,18.10
2018-04-11T09:07:25.548Z,18.20
2018-04-11T09:09:54.217Z,18.70
2018-04-11T09:12:22.795Z,18.80
2018-04-11T09:14:50.717Z,18.70
2018-04-11T09:17:18.468Z,18.90
2018-04-11T09:19:46.343Z,19.10
2018-04-11T09:22:14.248Z,19.30
2018-04-11T09:24:42.049Z,19.40
2018-04-11T09:27:10.654Z,19.80
2018-04-11T09:29:38.553Z,19.70
2018-04-11T09:32:06.322Z,19.80
2018-04-11T09:34:34.140Z,19.80
2018-04-11T09:37:02.003Z,19.90
2018-04-11T09:39:29.818Z,20.10
2018-04-11T09:41:57.718Z,20.40
2018-04-11T09:44:25.596Z,20.50
2018-04-11T09:46:54.188Z,20.70
2018-04-11T09:49:21.969Z,20.70
2018-04-11T09:51:49.881Z,20.80
2018-04-11T09:54:17.766Z,20.80
2018-04-11T09:56:46.345Z,21.00
2018-04-11T09:59:14.182Z,21.00
2018-04-11T10:01:47.478Z,21.20
2018-04-11T10:04:15.281Z,21.10
2018-04-11T10:06:43.851Z,21.10
2018-04-11T10:09:11.578Z,21.00
2018-04-11T10:11:39.476Z,21.00
2018-04-11T10:14:07.271Z,20.80
2018-04-11T10:16:35.898Z,20.70
2018-04-11T10:19:03.903Z,20.70
2018-04-11T10:21:31.754Z,20.60
2018-04-11T10:23:59.549Z,20.50
2018-04-11T10:26:27.539Z,20.60
2018-04-11T10:28:55.365Z,20.50
2018-04-11T10:31:23.161Z,20.50
2018-04-11T10:33:51.802Z,20.50
2018-04-11T10:36:19.582Z,20.50
2018-04-11T10:38:47.442Z,20.60
2018-04-11T10:41:15.371Z,20.80
2018-04-11T10:43:43.192Z,21.30
2018-04-11T10:46:11.822Z,21.80
2018-04-11T10:48:39.613Z,21.80
2018-04-11T10:51:07.509Z,21.90
2018-04-11T10:53:36.116Z,21.90
2018-04-11T10:56:03.941Z,21.90
2018-04-11T10:58:31.823Z,22.00
2018-04-11T11:00:59.641Z,22.20
2018-04-11T11:03:27.488Z,22.40
2018-04-11T11:05:55.417Z,22.40
2018-04-11T11:08:23.265Z,22.40
2018-04-11T11:10:51.166Z,22.30
2018-04-11T11:13:19.750Z,22.00
2018-04-11T11:15:48.390Z,21.90
2018-04-11T11:18:16.333Z,21.90
2018-04-11T11:20:56.163Z,21.70
2018-04-11T11:23:24.873Z,21.70
2018-04-11T11:25:55.533Z,21.80
2018-04-11T11:28:23.349Z,22.10
2018-04-11T11:30:52.126Z,22.40
2018-04-11T11:33:20.729Z,22.40
2018-04-11T11:35:48.454Z,22.40
2018-04-11T11:38:16.350Z,22.40
2018-04-11T11:40:44.845Z,22.00
2018-04-11T11:43:12.666Z,22.00
2018-04-11T11:45:40.538Z,21.50
2018-04-11T11:48:08.339Z,21.40
2018-04-11T11:50:36.217Z,21.30
2018-04-11T11:53:04.071Z,21.30
2018-04-11T11:55:31.864Z,21.30
2018-04-11T11:57:59.665Z,21.30
2018-04-11T12:00:27.490Z,21.30
2018-04-11T12:02:55.322Z,21.40
2018-04-11T12:05:23.984Z,21.80
2018-04-11T12:07:51.767Z,21.80
2018-04-11T12:10:20.469Z,23.40
2018-04-11T12:12:48.330Z,23.40
2018-04-11T12:17:51.015Z,23.50
2018-04-11T12:20:19.656Z,23.50
2018-04-11T12:22:47.495Z,23.50
2018-04-11T12:25:15.388Z,23.40
2018-04-11T12:27:43.408Z,23.10
2018-04-11T12:30:12.025Z,22.50
2018-04-11T12:32:39.776Z,22.50
2018-04-11T12:35:07.722Z,22.10
2018-04-11T12:37:36.328Z,22.30
2018-04-11T12:40:04.139Z,22.30
2018-04-11T12:42:32.070Z,22.30
2018-04-11T12:44:59.935Z,22.40
2018-04-11T12:47:27.761Z,22.40
2018-04-11T12:49:55.626Z,22.70
2018-04-11T12:52:23.458Z,23.40
2018-04-11T12:54:51.314Z,23.80
2018-04-11T12:57:19.247Z,24.30
2018-04-11T12:59:47.141Z,24.60
2018-04-11T13:02:14.928Z,25.10
2018-04-11T13:04:42.757Z,25.20
2018-04-11T13:07:10.566Z,25.10
2018-04-11T13:09:38.388Z,25.00
2018-04-11T13:12:06.291Z,24.60
2018-04-11T13:14:34.170Z,24.60
2018-04-11T13:17:01.936Z,24.20
2018-04-11T13:19:29.863Z,24.10
2018-04-11T13:21:57.710Z,24.30
2018-04-11T13:24:26.274Z,23.90
2018-04-11T13:26:54.142Z,23.90
2018-04-11T13:29:21.926Z,23.40
2018-04-11T13:31:49.833Z,23.00
2018-04-11T13:34:17.794Z,22.50
2018-04-11T13:36:45.569Z,22.20
2018-04-11T13:39:13.889Z,22.20
2018-04-11T13:41:41.761Z,22.10
2018-04-11T13:44:11.372Z,22.00
2018-04-11T13:46:40.002Z,22.10
2018-04-11T13:49:07.877Z,22.00
2018-04-11T13:51:35.701Z,22.20
2018-04-11T13:54:04.351Z,23.60
2018-04-11T13:56:32.242Z,23.60
2018-04-11T13:59:00.885Z,24.10
2018-04-11T14:01:28.706Z,24.10
2018-04-11T14:03:57.377Z,23.80
2018-04-11T14:06:25.215Z,23.80
2018-04-11T14:08:53.065Z,23.60
2018-04-11T14:11:20.868Z,23.40
2018-04-11T14:13:48.779Z,23.40
2018-04-11T14:16:16.597Z,23.50
2018-04-11T14:18:44.519Z,23.60
2018-04-11T14:21:12.333Z,23.80
2018-04-11T14:23:40.224Z,23.70
2018-04-11T14:26:08.116Z,23.60
2018-04-11T14:28:36.157Z,23.40
2018-04-11T14:31:04.853Z,23.20
2018-04-11T14:33:32.657Z,23.20
2018-04-11T14:36:00.486Z,23.10
2018-04-11T14:38:28.291Z,23.00
2018-04-11T14:40:56.184Z,22.80
2018-04-11T14:43:23.960Z,22.70
2018-04-11T14:45:51.825Z,22.70
2018-04-11T14:48:19.704Z,22.70
2018-04-11T14:50:48.334Z,22.60
2018-04-11T14:53:16.083Z,22.50
2018-04-11T14:55:44.006Z,22.50
2018-04-11T14:58:12.676Z,22.20
2018-04-11T15:00:40.459Z,22.20
2018-04-11T15:03:08.301Z,22.10
2018-04-11T15:05:36.151Z,22.00
2018-04-11T15:08:03.996Z,21.90
2018-04-11T15:10:32.023Z,21.80
2018-04-11T15:12:59.820Z,21.70
2018-04-11T15:15:28.449Z,21.50
2018-04-11T15:17:56.439Z,21.50
2018-04-11T15:20:25.096Z,21.50
2018-04-11T15:22:52.973Z,21.60
2018-04-11T15:25:20.918Z,21.70
2018-04-11T15:27:48.824Z,21.70
2018-04-11T15:30:16.690Z,21.70
2018-04-11T15:32:45.348Z,21.50
2018-04-11T15:35:13.172Z,21.50
2018-04-11T15:37:41.712Z,21.30
2018-04-11T15:40:10.400Z,21.30
2018-04-11T15:42:38.285Z,21.00
2018-04-11T15:45:06.120Z,20.40
2018-04-11T15:47:34.010Z,20.10
2018-04-11T15:50:01.722Z,19.80
2018-04-11T15:52:29.445Z,19.60
2018-04-11T15:54:57.411Z,19.40
2018-04-11T15:57:25.213Z,19.40
2018-04-11T15:59:53.083Z,19.30
2018-04-11T16:02:20.983Z,19.30
2018-04-11T16:04:48.859Z,19.30
2018-04-11T16:07:16.747Z,19.30
2018-04-11T16:09:44.619Z,19.10
2018-04-11T16:12:12.454Z,19.00
2018-04-11T16:14:40.316Z,18.90
2018-04-11T16:17:08.194Z,18.90
2018-04-11T16:19:35.973Z,19.00
2018-04-11T16:22:03.791Z,18.90
2018-04-11T16:24:31.778Z,18.90
2018-04-11T16:26:59.682Z,18.90
2018-04-11T16:29:27.495Z,18.90
2018-04-11T16:31:55.369Z,19.00
2018-04-11T16:34:23.203Z,19.00
2018-04-11T16:36:52.647Z,19.00
2018-04-11T16:39:20.506Z,19.00
2018-04-11T16:41:48.332Z,19.00
2018-04-11T16:44:16.895Z,18.90
2018-04-11T16:46:44.778Z,18.90
2018-04-11T16:49:12.642Z,19.00
2018-04-11T16:51:40.588Z,18.90
2018-04-11T16:54:08.586Z,18.90
2018-04-11T16:56:36.470Z,18.80
2018-04-11T16:59:05.074Z,18.50
2018-04-11T17:01:32.989Z,18.50
2018-04-11T17:04:00.925Z,18.40
2018-04-11T17:06:28.809Z,18.30
2018-04-11T17:08:56.669Z,18.10
2018-04-11T17:11:24.564Z,18.00
2018-04-11T17:13:52.475Z,18.00
2018-04-11T17:16:20.543Z,17.80
2018-04-11T17:18:48.459Z,17.70
2018-04-11T17:21:28.078Z,17.60
2018-04-11T17:24:07.723Z,17.60
2018-04-11T17:26:47.444Z,17.50
2018-04-11T17:29:26.831Z,17.50
2018-04-11T17:31:54.844Z,17.40
2018-04-11T17:34:22.718Z,17.30
2018-04-11T17:36:50.624Z,17.20
2018-04-11T17:39:19.415Z,17.00
2018-04-11T17:41:47.273Z,17.00
2018-04-11T17:44:15.088Z,17.00
2018-04-11T17:46:43.001Z,16.90
2018-04-11T17:49:10.742Z,16.80
2018-04-11T17:51:38.564Z,16.80
2018-04-11T17:54:06.393Z,16.70
2018-04-11T17:56:34.181Z,16.60
2018-04-11T17:59:02.074Z,16.60
2018-04-11T18:01:30.787Z,16.40
2018-04-11T18:03:58.594Z,16.40
2018-04-11T18:06:26.438Z,16.40
2018-04-11T18:08:54.258Z,16.40
2018-04-11T18:11:22.109Z,16.30
2018-04-11T18:13:50.064Z,16.30
2018-04-11T18:16:18.698Z,16.20
2018-04-11T18:18:46.791Z,16.20
2018-04-11T18:21:14.706Z,16.10
2018-04-11T18:23:42.606Z,16.00
2018-04-11T18:26:10.370Z,16.00
2018-04-11T18:28:38.182Z,15.90
2018-04-11T18:31:06.051Z,15.90
2018-04-11T18:33:33.893Z,15.80
2018-04-11T18:36:08.536Z,15.70
2018-04-11T18:38:37.974Z,15.70
2018-04-11T18:41:05.944Z,15.70
2018-04-11T18:43:33.779Z,15.60
2018-04-11T18:46:01.667Z,15.50
2018-04-11T18:48:29.481Z,15.40
2018-04-11T18:50:57.282Z,15.40
2018-04-11T18:53:25.292Z,15.30
2018-04-11T18:55:53.901Z,15.30
2018-04-11T18:58:21.716Z,15.20
2018-04-11T19:00:49.759Z,15.30
2018-04-11T19:03:17.672Z,15.20
2018-04-11T19:05:46.260Z,15.10
2018-04-11T19:08:14.827Z,15.10
2018-04-11T19:10:42.611Z,15.10
2018-04-11T19:13:11.240Z,15.00
2018-04-11T19:15:39.074Z,15.00
2018-04-11T19:18:08.041Z,14.90
2018-04-11T19:20:35.846Z,14.90
2018-04-11T19:23:03.704Z,14.90
2018-04-11T19:25:31.682Z,14.80
2018-04-11T19:27:59.738Z,14.80
2018-04-11T19:30:27.674Z,14.70
2018-04-11T19:32:55.672Z,14.60
2018-04-11T19:35:24.241Z,14.50
2018-04-11T19:37:52.111Z,14.50
2018-04-11T19:40:20.720Z,14.40
2018-04-11T19:42:48.621Z,14.30
2018-04-11T19:45:16.537Z,14.30
2018-04-11T19:47:44.385Z,14.30
2018-04-11T19:50:12.201Z,14.20
2018-04-11T19:52:40.026Z,14.20
2018-04-11T19:55:07.886Z,14.10
2018-04-11T19:57:35.711Z,14.20
2018-04-11T20:00:03.716Z,14.20
2018-04-11T20:02:31.506Z,14.10
2018-04-11T20:05:00.053Z,14.00
2018-04-11T20:07:27.907Z,13.90
2018-04-11T20:09:55.715Z,13.90
2018-04-11T20:12:24.241Z,13.80
2018-04-11T20:14:52.090Z,13.70
2018-04-11T20:17:20.046Z,13.70
2018-04-11T20:19:48.598Z,13.60
2018-04-11T20:22:16.537Z,13.60
2018-04-11T20:24:45.198Z,13.50
2018-04-11T20:27:13.062Z,13.50
2018-04-11T20:29:40.911Z,13.50
2018-04-11T20:32:09.527Z,13.50
2018-04-11T20:34:37.276Z,13.50
2018-04-11T20:37:04.990Z,13.50
2018-04-11T20:39:33.520Z,13.40
2018-04-11T20:42:01.200Z,13.30
2018-04-11T20:44:28.946Z,13.20
2018-04-11T20:46:56.754Z,13.20
2018-04-11T20:49:24.662Z,13.20
2018-04-11T20:51:53.274Z,13.10
2018-04-11T20:54:21.047Z,13.10
2018-04-11T20:56:48.861Z,13.00
2018-04-11T20:59:17.486Z,13.10
2018-04-11T21:01:45.340Z,13.00
2018-04-11T21:04:13.896Z,13.00
2018-04-11T21:06:41.847Z,13.00
2018-04-11T21:09:09.675Z,12.90
2018-04-11T21:11:37.518Z,12.90
2018-04-11T21:14:06.089Z,12.80
2018-04-11T21:16:34.603Z,12.80
2018-04-11T21:19:02.361Z,12.90
2018-04-11T21:21:30.285Z,12.80
2018-04-11T21:23:58.137Z,12.80
2018-04-11T21:26:25.952Z,12.80
2018-04-11T21:28:54.564Z,12.70
2018-04-11T21:31:22.423Z,12.70
2018-04-11T21:33:50.352Z,12.70
2018-04-11T21:36:18.942Z,12.60
2018-04-11T21:38:47.576Z,12.50
2018-04-11T21:41:15.933Z,12.50
2018-04-11T21:43:43.816Z,12.50
2018-04-11T21:46:12.648Z,12.50
2018-04-11T21:48:40.354Z,12.50
2018-04-11T21:51:08.197Z,12.40
2018-04-11T21:53:36.722Z,12.40
2018-04-11T21:56:04.606Z,12.40
2018-04-11T21:58:34.444Z,12.40
2018-04-11T22:01:02.215Z,12.40
2018-04-11T22:03:30.876Z,12.30
2018-04-11T22:05:58.707Z,12.30
2018-04-11T22:08:27.234Z,12.30
2018-04-11T22:10:55.037Z,12.30
2018-04-11T22:13:23.097Z,12.20
2018-04-11T22:15:51.699Z,12.20
2018-04-11T22:18:19.517Z,12.20
2018-04-11T22:20:47.334Z,12.10
2018-04-11T22:23:15.081Z,12.10
2018-04-11T22:25:43.666Z,12.10
2018-04-11T22:28:11.564Z,12.10
2018-04-11T22:30:39.583Z,12.10
2018-04-11T22:33:07.451Z,12.00
2018-04-11T22:35:36.117Z,12.00
2018-04-11T22:38:03.970Z,12.00
2018-04-11T22:40:31.816Z,12.00
2018-04-11T22:42:59.606Z,12.00
2018-04-11T22:45:27.342Z,12.00
2018-04-11T22:47:55.212Z,12.00
2018-04-11T22:50:23.812Z,12.00
2018-04-11T22:52:51.656Z,11.90
2018-04-11T22:55:19.421Z,11.90
2018-04-11T22:57:47.309Z,11.90
2018-04-11T23:00:15.166Z,12.00
2018-04-11T23:02:43.109Z,11.90
2018-04-11T23:05:10.894Z,11.90
2018-04-11T23:07:38.706Z,11.90
2018-04-11T23:10:07.409Z,11.80
2018-04-11T23:12:36.090Z,11.80
2018-04-11T23:15:04.826Z,11.80
2018-04-11T23:17:32.668Z,11.80
2018-04-11T23:20:00.535Z,11.80
2018-04-11T23:22:28.388Z,11.70
2018-04-11T23:24:56.995Z,11.70
2018-04-11T23:27:24.802Z,11.70
2018-04-11T23:29:52.595Z,11.70
2018-04-11T23:32:21.176Z,11.70
2018-04-11T23:34:49.984Z,11.70
2018-04-11T23:37:17.942Z,11.70
2018-04-11T23:39:46.626Z,11.70
2018-04-11T23:42:15.279Z,11.70
2018-04-11T23:44:43.039Z,11.60
2018-04-11T23:47:10.763Z,11.70
2018-04-11T23:49:38.546Z,11.60
2018-04-11T23:52:06.342Z,11.60
2018-04-11T23:54:34.197Z,11.60
2018-04-11T23:57:02.760Z,11.60
2018-04-11T23:59:30.570Z,11.60
